Time,TemperatureF,DewpointF,PressureIn,WindDirection,WindDirectionDegrees,WindSpeedMPH,WindSpeedGustMPH,Humidity,HourlyPrecipIn,Conditions,Clouds,dailyrainin,SolarRadiationWatts/m^2,SoftwareType,DateUTC
2013-03-27 00:02:00,71.0,32.0,-100.00,SSW,193,4.0,7.0,24,0.00,,,0.00,0.000000,,2013-03-27 07:02:00,
2013-03-27 00:12:00,71.0,32.0,-100.00,SSW,193,4.0,7.0,24,0.00,,,0.00,0.000000,,2013-03-27 07:12:00,
2013-03-27 00:22:00,71.0,32.0,-100.00,SSW,193,4.0,7.0,24,0.00,,,0.00,0.000000,,2013-03-27 07:22:00,
2013-03-27 00:53:00,72.0,30.0,-100.00,South,190,5.0,7.0,21,0.00,,,0.00,0.000000,,2013-03-27 07:53:00,
2013-03-27 01:02:00,72.0,30.0,-100.00,South,190,5.0,7.0,21,0.00,,,0.00,0.000000,,2013-03-27 08:02:00,
2013-03-27 01:12:00,72.0,30.0,-100.00,South,190,5.0,7.0,21,0.00,,,0.00,0.000000,,2013-03-27 08:12:00,
2013-03-27 01:22:00,72.0,30.0,-100.00,South,190,5.0,7.0,21,0.00,,,0.00,0.000000,,2013-03-27 08:22:00,
2013-03-27 01:52:00,71.0,25.0,-100.00,SSW,199,0.0,9.0,18,0.00,,,0.00,0.000000,,2013-03-27 08:52:00,
2013-03-27 02:01:00,71.0,25.0,-100.00,SSW,199,0.0,9.0,18,0.00,,,0.00,0.000000,,2013-03-27 09:01:00,
2013-03-27 02:11:00,71.0,25.0,-100.00,SSW,199,0.0,9.0,18,0.00,,,0.00,0.000000,,2013-03-27 09:11:00,
2013-03-27 02:22:00,71.0,25.0,-100.00,SSW,199,0.0,9.0,18,0.00,,,0.00,0.000000,,2013-03-27 09:22:00,
2013-03-27 02:52:00,69.0,33.0,-100.00,NE,39,1.0,7.0,26,0.00,,,0.00,0.000000,,2013-03-27 09:52:00,
2013-03-27 03:02:00,69.0,33.0,-100.00,NE,39,1.0,7.0,26,0.00,,,0.00,0.000000,,2013-03-27 10:02:00,
2013-03-27 03:12:00,69.0,33.0,-100.00,NE,39,1.0,7.0,26,0.00,,,0.00,0.000000,,2013-03-27 10:12:00,
2013-03-27 03:22:00,69.0,33.0,-100.00,NE,39,1.0,7.0,26,0.00,,,0.00,0.000000,,2013-03-27 10:22:00,
2013-03-27 03:53:00,70.0,22.0,-100.00,WSW,238,0.0,7.0,16,0.00,,,0.00,0.000000,,2013-03-27 10:53:00,
2013-03-27 04:02:00,70.0,22.0,-100.00,WSW,238,0.0,7.0,16,0.00,,,0.00,0.000000,,2013-03-27 11:02:00,
2013-03-27 04:12:00,70.0,22.0,-100.00,WSW,238,0.0,7.0,16,0.00,,,0.00,0.000000,,2013-03-27 11:12:00,
2013-03-27 04:22:00,70.0,22.0,-100.00,WSW,238,0.0,7.0,16,0.00,,,0.00,0.000000,,2013-03-27 11:22:00,
2013-03-27 04:52:00,67.0,26.0,-100.00,South,191,0.0,8.0,21,0.00,,,0.00,0.000000,,2013-03-27 11:52:00,
2013-03-27 05:02:00,67.0,26.0,-100.00,South,191,0.0,8.0,21,0.00,,,0.00,0.000000,,2013-03-27 12:02:00,
2013-03-27 05:12:00,67.0,26.0,-100.00,South,191,0.0,8.0,21,0.00,,,0.00,0.000000,,2013-03-27 12:12:00,
2013-03-27 05:22:00,67.0,26.0,-100.00,South,191,0.0,8.0,21,0.00,,,0.00,0.000000,,2013-03-27 12:22:00,
2013-03-27 05:52:00,65.0,29.0,-100.00,SSE,167,3.0,7.0,26,0.00,,,0.00,0.000000,,2013-03-27 12:52:00,
2013-03-27 06:02:00,65.0,29.0,-100.00,SSE,167,3.0,7.0,26,0.00,,,0.00,0.000000,,2013-03-27 13:02:00,
2013-03-27 06:12:00,65.0,29.0,-100.00,SSE,167,3.0,7.0,26,0.00,,,0.00,0.000000,,2013-03-27 13:12:00,
2013-03-27 06:22:00,65.0,29.0,-100.00,SSE,167,3.0,7.0,26,0.00,,,0.00,0.000000,,2013-03-27 13:22:00,
2013-03-27 06:53:00,63.0,29.0,-100.00,West,264,1.0,8.0,27,0.00,,,0.00,0.000000,,2013-03-27 13:53:00,
2013-03-27 07:02:00,63.0,29.0,-100.00,West,264,1.0,8.0,27,0.00,,,0.00,0.000000,,2013-03-27 14:02:00,
2013-03-27 07:11:00,63.0,29.0,-100.00,West,264,1.0,8.0,27,0.00,,,0.00,0.000000,,2013-03-27 14:11:00,
2013-03-27 07:22:00,63.0,29.0,-100.00,West,264,1.0,8.0,27,0.00,,,0.00,0.000000,,2013-03-27 14:22:00,
2013-03-27 07:52:00,61.0,35.0,-100.00,ESE,114,0.0,7.0,38,0.00,,,0.00,29.000000,,2013-03-27 14:52:00,
2013-03-27 08:02:00,61.0,35.0,-100.00,ESE,114,0.0,7.0,38,0.00,,,0.00,29.000000,,2013-03-27 15:02:00,
2013-03-27 08:11:00,61.0,35.0,-100.00,ESE,114,0.0,7.0,38,0.00,,,0.00,29.000000,,2013-03-27 15:11:00,
2013-03-27 08:22:00,61.0,35.0,-100.00,ESE,114,0.0,7.0,38,0.00,,,0.00,29.000000,,2013-03-27 15:22:00,
2013-03-27 08:52:00,68.0,34.0,-100.00,NNE,20,0.0,3.0,28,0.00,,,-99.99,222.000000,,2013-03-27 15:52:00,
2013-03-27 09:02:00,68.0,34.0,-100.00,NNE,20,0.0,3.0,28,0.00,,,-99.99,222.000000,,2013-03-27 16:02:00,
2013-03-27 09:12:00,68.0,34.0,-100.00,NNE,20,0.0,3.0,28,0.00,,,-99.99,222.000000,,2013-03-27 16:12:00,
2013-03-27 09:22:00,68.0,34.0,-100.00,NNE,20,0.0,3.0,28,0.00,,,-99.99,222.000000,,2013-03-27 16:22:00,
2013-03-27 11:02:00,82.0,28.0,-100.00,SW,216,0.0,4.0,14,-99.99,,,0.00,718.000000,,2013-03-27 18:02:00,
2013-03-27 11:12:00,82.0,28.0,-100.00,SW,216,0.0,4.0,14,-99.99,,,0.00,718.000000,,2013-03-27 18:12:00,
2013-03-27 11:53:00,84.0,28.0,-100.00,SW,232,1.0,9.0,13,0.00,,,0.00,711.000000,,2013-03-27 18:53:00,
2013-03-27 12:02:00,84.0,28.0,-100.00,SW,232,1.0,9.0,13,0.00,,,0.00,711.000000,,2013-03-27 19:02:00,
2013-03-27 12:12:00,84.0,28.0,-100.00,SW,232,1.0,9.0,13,0.00,,,0.00,711.000000,,2013-03-27 19:12:00,
2013-03-27 12:21:00,84.0,28.0,-100.00,SW,232,1.0,9.0,13,0.00,,,0.00,711.000000,,2013-03-27 19:21:00,
2013-03-27 12:52:00,85.0,27.0,-100.00,West,278,8.0,16.0,12,0.00,,,0.00,839.000000,,2013-03-27 19:52:00,
2013-03-27 13:02:00,85.0,27.0,-100.00,West,278,8.0,16.0,12,0.00,,,0.00,839.000000,,2013-03-27 20:02:00,
2013-03-27 13:12:00,85.0,27.0,-100.00,West,278,8.0,16.0,12,0.00,,,0.00,839.000000,,2013-03-27 20:12:00,
2013-03-27 13:22:00,85.0,27.0,-100.00,West,278,8.0,16.0,12,0.00,,,0.00,839.000000,,2013-03-27 20:22:00,
2013-03-27 13:52:00,88.0,25.0,-100.00,West,273,5.0,18.0,10,0.00,,,0.00,1109.000000,,2013-03-27 20:52:00,
2013-03-27 14:12:00,88.0,25.0,-100.00,West,273,5.0,18.0,10,0.00,,,0.00,1109.000000,,2013-03-27 21:12:00,
2013-03-27 14:22:00,88.0,25.0,-100.00,West,273,5.0,18.0,10,0.00,,,0.00,1109.000000,,2013-03-27 21:22:00,
2013-03-27 14:52:00,87.0,28.0,-100.00,West,269,10.0,20.0,12,0.00,,,0.00,893.000000,,2013-03-27 21:52:00,
2013-03-27 15:02:00,87.0,28.0,-100.00,West,269,10.0,20.0,12,0.00,,,0.00,893.000000,,2013-03-27 22:02:00,
2013-03-27 15:12:00,87.0,28.0,-100.00,West,269,10.0,20.0,12,0.00,,,0.00,893.000000,,2013-03-27 22:12:00,
2013-03-27 15:23:00,87.0,28.0,-100.00,West,269,10.0,20.0,12,0.00,,,0.00,893.000000,,2013-03-27 22:23:00,
2013-03-27 15:52:00,87.0,28.0,-100.00,West,272,10.0,17.0,12,0.00,,,0.00,939.000000,,2013-03-27 22:52:00,
2013-03-27 16:02:00,87.0,28.0,-100.00,West,272,10.0,17.0,12,0.00,,,0.00,939.000000,,2013-03-27 23:02:00,
2013-03-27 16:12:00,87.0,28.0,-100.00,West,272,10.0,17.0,12,0.00,,,0.00,939.000000,,2013-03-27 23:12:00,
2013-03-27 16:22:00,87.0,28.0,-100.00,West,272,10.0,17.0,12,0.00,,,0.00,939.000000,,2013-03-27 23:22:00,
2013-03-27 16:52:00,87.0,28.0,-100.00,WSW,246,8.0,20.0,12,0.00,,,0.00,724.000000,,2013-03-27 23:52:00,
2013-03-27 17:02:00,87.0,28.0,-100.00,WSW,246,8.0,20.0,12,0.00,,,0.00,724.000000,,2013-03-28 00:02:00,
2013-03-27 17:12:00,87.0,28.0,-100.00,WSW,246,8.0,20.0,12,0.00,,,0.00,724.000000,,2013-03-28 00:12:00,
2013-03-27 17:22:00,87.0,28.0,-100.00,WSW,246,8.0,20.0,12,0.00,,,0.00,724.000000,,2013-03-28 00:22:00,